Avoca, Pennsylvania
Current Conditions -  °F | °C
As of 10:54 AM on Friday 21 Nov 2014 (Local Time) from KAVP Reporting Station
Broken Clouds Broken Clouds  
Wind Chill: 17°   Ceiling: 4300
Heat Index: 28°   Visibility: 10mi
Dew Point: 10°   Wind: 14mph
Humidity: 47%   Direction: 300°WNW
Pressure: 30.3"   Gusts: 23mph
Location:  41.3331°N, 75.7365°W
Report Text: KAVP 211554Z 30012G20KT 10SM BKN043 M02/M12 A3030 RMK AO2 SLP271 T10221122
Loading
Personal Weather Stations






























Interactive Weather Map New forecast layout! Learn more

10-Day Weather Forecast

Advertisements
Track Severe Weather on mobile